Time;durP1;ratioP1;P1;durP2;ratioP2;P2;SDS_P1;SDS_P2;PMS_P1;PMS_P2;Temp;Humidity;BMP_temperature;BMP_pressure;BME280_temperature;BME280_humidity;BME280_pressure;Samples;Min_cycle;Max_cycle;Signal;HPM_P1;HPM_P2
2022/04/13 00:01:06;;;;;;;12.70;4.40;;;;;;;16.01;53.87;100886.56;3539238;40;20103;-62
2022/04/13 00:03:31;;;;;;;13.60;4.78;;;;;;;15.95;53.78;100881.66;3528600;40;20508;-63
2022/04/13 00:05:57;;;;;;;11.73;4.40;;;;;;;15.87;53.84;100876.88;3540042;40;20053;-63
2022/04/13 00:08:23;;;;;;;10.00;4.32;;;;;;;15.81;54.19;100874.69;3540060;40;20670;-62
2022/04/13 00:10:48;;;;;;;13.32;4.32;;;;;;;15.74;54.46;100878.91;3543808;40;20194;-63
2022/04/13 00:13:14;;;;;;;8.75;4.22;;;;;;;15.67;54.60;100892.09;3533509;40;20053;-62
2022/04/13 00:15:41;;;;;;;9.38;4.57;;;;;;;15.55;55.47;100877.66;3540608;40;20062;-62
2022/04/13 00:18:08;;;;;;;10.18;4.22;;;;;;;15.55;55.27;100884.94;3534244;40;20068;-63
2022/04/13 00:20:36;;;;;;;11.07;4.78;;;;;;;15.49;55.44;100890.84;3535551;40;20065;-62
2022/04/13 00:23:03;;;;;;;10.00;4.35;;;;;;;15.29;55.67;100873.53;3542993;40;20057;-63
2022/04/13 00:25:29;;;;;;;9.13;4.28;;;;;;;15.32;56.18;100890.38;3541683;40;20416;-62
2022/04/13 00:27:56;;;;;;;10.02;4.40;;;;;;;15.29;56.76;100895.19;3543228;40;20053;-63
2022/04/13 00:30:22;;;;;;;10.90;4.40;;;;;;;15.22;56.64;100896.63;3528302;40;20095;-62
2022/04/13 00:32:48;;;;;;;12.52;4.35;;;;;;;15.18;56.80;100898.75;3535227;40;20094;-63
2022/04/13 00:35:13;;;;;;;10.93;4.63;;;;;;;15.17;57.00;100904.28;3536836;40;20065;-62
2022/04/13 00:37:39;;;;;;;12.32;4.93;;;;;;;15.15;56.71;100906.25;3540273;40;20077;-63
2022/04/13 00:40:07;;;;;;;11.18;4.28;;;;;;;15.12;56.79;100899.22;3543514;40;20089;-63
2022/04/13 00:42:33;;;;;;;7.93;3.80;;;;;;;15.12;56.30;100909.19;3541350;40;20123;-62
2022/04/13 00:44:59;;;;;;;11.23;4.75;;;;;;;15.09;56.92;100904.88;3533324;40;20633;-62
2022/04/13 00:47:25;;;;;;;9.90;4.50;;;;;;;15.05;56.96;100908.81;3535634;40;20066;-63
2022/04/13 00:49:54;;;;;;;10.25;4.13;;;;;;;14.59;57.02;100831.28;3537375;40;20098;-62
2022/04/13 00:52:23;;;;;;;7.68;4.20;;;;;;;15.11;57.24;100918.31;3531727;40;20050;-63
2022/04/13 00:54:51;;;;;;;8.90;3.83;;;;;;;15.11;57.11;100923.72;3539700;40;20128;-63
2022/04/13 00:57:22;;;;;;;10.98;3.95;;;;;;;15.09;57.07;100927.41;3540031;40;20073;-62
2022/04/13 00:59:53;;;;;;;9.02;3.58;;;;;;;15.07;56.72;100918.56;3535480;40;20258;-62
2022/04/13 01:02:21;;;;;;;10.48;4.13;;;;;;;15.05;57.08;100922.38;3537742;40;20109;-62
2022/04/13 01:04:48;;;;;;;11.02;4.28;;;;;;;15.07;56.95;100929.38;3537207;40;20070;-62
2022/04/13 01:07:13;;;;;;;7.30;4.22;;;;;;;15.11;57.69;100939.97;3535423;40;20058;-62
2022/04/13 01:09:40;;;;;;;8.73;3.80;;;;;;;15.09;57.09;100946.34;3543552;40;20058;-62
2022/04/13 01:12:06;;;;;;;13.45;3.90;;;;;;;15.07;57.56;100944.78;3539791;40;20544;-62
2022/04/13 01:14:32;;;;;;;15.20;3.85;;;;;;;15.09;57.69;100953.63;3540752;40;20070;-62
2022/04/13 01:17:00;;;;;;;12.27;4.38;;;;;;;15.11;57.65;100956.22;3534910;40;20084;-63
2022/04/13 01:19:26;;;;;;;7.97;3.92;;;;;;;15.09;57.48;100954.47;3537126;40;20062;-63
2022/04/13 01:21:53;;;;;;;8.70;4.40;;;;;;;15.08;58.01;100963.59;3532908;40;20128;-63
2022/04/13 01:24:21;;;;;;;10.70;4.78;;;;;;;15.09;57.93;100969.88;3535609;40;20074;-62
2022/04/13 01:26:47;;;;;;;11.88;4.38;;;;;;;15.09;58.14;100967.16;3542731;40;20054;-63
2022/04/13 01:29:13;;;;;;;9.48;4.60;;;;;;;14.67;58.20;100898.31;3538013;40;20129;-63
2022/04/13 01:31:40;;;;;;;8.88;4.70;;;;;;;14.98;58.31;100959.03;3533225;40;20085;-63
2022/04/13 01:34:07;;;;;;;10.32;4.97;;;;;;;15.07;58.45;100982.69;3544291;40;20062;-63
2022/04/13 01:36:37;;;;;;;11.48;4.63;;;;;;;14.94;58.73;100963.84;3531418;40;20069;-63
2022/04/13 01:39:05;;;;;;;10.98;5.00;;;;;;;15.03;58.81;100982.06;3535627;40;20057;-63
2022/04/13 01:41:32;;;;;;;12.82;5.30;;;;;;;15.02;59.03;100980.31;3536961;40;20053;-63
2022/04/13 01:43:58;;;;;;;9.07;4.72;;;;;;;14.87;59.80;100967.97;3541917;40;20069;-63
2022/04/13 01:46:24;;;;;;;13.32;5.65;;;;;;;14.69;59.86;100937.81;3531294;40;20213;-63
2022/04/13 01:48:50;;;;;;;11.68;5.28;;;;;;;14.97;59.97;100998.78;3545712;40;20049;-63
2022/04/13 01:51:17;;;;;;;10.10;5.28;;;;;;;14.96;60.20;100993.47;3534986;40;20049;-63
2022/04/13 01:53:43;;;;;;;14.25;5.70;;;;;;;14.97;60.65;101003.31;3542183;40;20080;-63
2022/04/13 01:56:09;;;;;;;9.13;5.35;;;;;;;14.95;60.33;100998.03;3533684;40;20124;-63
2022/04/13 01:58:35;;;;;;;10.80;5.40;;;;;;;14.95;60.66;100998.03;3534842;40;20070;-63
2022/04/13 02:01:01;;;;;;;10.20;6.15;;;;;;;14.72;60.78;100955.66;3542297;40;20050;-63
2022/04/13 02:03:27;;;;;;;10.05;5.80;;;;;;;14.92;60.73;101003.69;3532508;40;20115;-63
2022/04/13 02:05:54;;;;;;;10.68;5.68;;;;;;;14.88;60.91;100999.50;3544638;40;20045;-63
2022/04/13 02:08:22;;;;;;;15.48;6.40;;;;;;;14.85;61.46;100999.72;3532877;40;20076;-63
2022/04/13 02:10:49;;;;;;;11.95;5.47;;;;;;;14.89;61.78;101006.63;3535142;40;20365;-63
2022/04/13 02:13:15;;;;;;;10.45;5.72;;;;;;;14.81;61.31;101003.63;3536462;40;20062;-63
2022/04/13 02:15:42;;;;;;;9.38;5.68;;;;;;;14.86;61.63;101017.69;3541583;40;20058;-63
2022/04/13 02:18:07;;;;;;;9.48;5.75;;;;;;;14.85;61.55;101021.38;3529793;40;20084;-63
2022/04/13 02:20:33;;;;;;;9.13;5.40;;;;;;;14.81;61.90;101019.88;3542226;40;20955;-63
2022/04/13 02:23:01;;;;;;;12.35;5.72;;;;;;;14.82;61.77;101024.31;3544724;40;20053;-63
2022/04/13 02:25:27;;;;;;;12.80;5.70;;;;;;;14.73;62.09;101006.06;3525212;40;20881;-63
2022/04/13 02:27:53;;;;;;;14.57;5.95;;;;;;;14.73;62.30;101011.50;3539118;40;20065;-63
2022/04/13 02:30:19;;;;;;;13.02;6.20;;;;;;;14.77;62.24;101023.78;3538338;40;20317;-63
2022/04/13 02:32:45;;;;;;;13.02;6.00;;;;;;;14.74;62.28;101024.88;3533254;40;20065;-63
2022/04/13 02:35:13;;;;;;;10.73;5.90;;;;;;;14.70;62.63;101023.41;3538948;40;20128;-63
2022/04/13 02:37:40;;;;;;;13.02;6.07;;;;;;;14.54;62.92;101007.47;3541084;40;20165;-63
2022/04/13 02:40:07;;;;;;;10.27;5.60;;;;;;;14.57;63.07;101028.88;3533296;40;20058;-63
2022/04/13 02:42:35;;;;;;;12.00;6.72;;;;;;;14.55;63.13;101030.81;3537443;40;20073;-63
2022/04/13 02:45:01;;;;;;;11.23;5.93;;;;;;;14.50;63.17;101033.00;3539078;40;20109;-63
2022/04/13 02:47:27;;;;;;;12.95;6.20;;;;;;;14.47;63.76;101026.97;3534896;40;20057;-62
2022/04/13 02:49:54;;;;;;;18.17;6.57;;;;;;;14.42;63.76;101029.13;3531456;40;20060;-62
2022/04/13 02:52:20;;;;;;;10.55;6.40;;;;;;;14.36;63.90;101034.00;3540178;40;20050;-62
2022/04/13 02:54:46;;;;;;;11.20;6.30;;;;;;;14.32;63.78;101039.78;3524759;40;20072;-62
2022/04/13 02:57:12;;;;;;;12.80;6.10;;;;;;;14.24;64.20;101037.66;3533361;40;20070;-62
2022/04/13 02:59:37;;;;;;;8.35;5.90;;;;;;;14.17;64.54;101042.63;3539062;40;20066;-62
2022/04/13 03:02:04;;;;;;;10.52;5.88;;;;;;;14.06;64.80;101039.00;3541463;40;20069;-62
2022/04/13 03:04:32;;;;;;;10.35;6.45;;;;;;;13.38;64.98;100938.53;3529798;40;20068;-62
2022/04/13 03:06:58;;;;;;;11.20;6.85;;;;;;;13.76;65.00;101006.94;3538369;40;20049;-62
2022/04/13 03:09:24;;;;;;;14.48;6.97;;;;;;;13.91;64.92;101038.25;3535714;40;20132;-62
2022/04/13 03:11:50;;;;;;;12.70;6.30;;;;;;;13.62;65.39;101000.69;3525689;40;20081;-62
2022/04/13 03:14:15;;;;;;;10.98;6.20;;;;;;;13.76;65.46;101028.56;3542530;40;20058;-63
2022/04/13 03:16:41;;;;;;;13.43;6.38;;;;;;;13.72;65.80;101040.56;3537878;40;20092;-63
2022/04/13 03:19:06;;;;;;;13.07;6.47;;;;;;;13.56;66.17;101028.16;3542467;40;20057;-62
2022/04/13 03:21:32;;;;;;;13.15;6.55;;;;;;;13.57;66.09;101032.56;3530432;40;20062;-63
2022/04/13 03:23:58;;;;;;;15.48;7.25;;;;;;;13.33;66.39;101005.47;3542455;40;20678;-63
2022/04/13 03:26:23;;;;;;;10.85;6.88;;;;;;;13.42;66.87;101033.69;3535661;40;20042;-62
2022/04/13 03:28:49;;;;;;;12.65;7.20;;;;;;;13.35;66.98;101038.66;3524634;40;20144;-63
2022/04/13 03:31:16;;;;;;;13.52;6.63;;;;;;;13.29;67.22;101036.38;3541661;40;20053;-62
2022/04/13 03:33:42;;;;;;;10.57;6.72;;;;;;;13.23;67.50;101040.34;3546703;40;20069;-62
2022/04/13 03:36:09;;;;;;;12.95;7.22;;;;;;;13.17;67.06;101039.91;3532552;40;20368;-63
2022/04/13 03:38:35;;;;;;;13.52;6.65;;;;;;;13.07;67.77;101034.28;3542363;40;20089;-62
2022/04/13 03:41:03;;;;;;;15.32;7.07;;;;;;;13.02;67.51;101042.66;3536572;40;20053;-61
2022/04/13 03:43:28;;;;;;;15.07;7.28;;;;;;;12.95;68.45;101048.59;3534959;40;20085;-61
2022/04/13 03:45:54;;;;;;;12.30;7.40;;;;;;;12.89;68.89;101051.72;3539320;40;20344;-62
2022/04/13 03:48:20;;;;;;;14.43;6.88;;;;;;;12.82;68.79;101048.56;3545502;40;20102;-62
2022/04/13 03:50:46;;;;;;;15.05;7.63;;;;;;;12.68;69.30;101044.09;3530725;40;20135;-61
2022/04/13 03:53:11;;;;;;;14.15;7.18;;;;;;;12.67;69.56;101052.31;3542764;40;20377;-61
2022/04/13 03:55:37;;;;;;;13.88;7.88;;;;;;;12.59;69.85;101055.53;3540259;40;20104;-61
2022/04/13 03:58:03;;;;;;;14.57;6.97;;;;;;;12.54;69.84;101057.66;3538313;40;20066;-61
2022/04/13 04:00:28;;;;;;;17.55;7.40;;;;;;;12.50;70.01;101056.13;3537927;40;20109;-61
2022/04/13 04:02:54;;;;;;;14.32;7.93;;;;;;;12.49;69.95;101060.63;3547305;40;20623;-61
2022/04/13 04:05:20;;;;;;;11.95;7.65;;;;;;;12.46;70.98;101060.88;3546965;40;20155;-62
2022/04/13 04:07:46;;;;;;;11.88;7.78;;;;;;;12.29;70.73;101053.84;3532814;40;20096;-62
2022/04/13 04:10:11;;;;;;;13.98;8.10;;;;;;;12.34;71.51;101069.75;3548933;40;20057;-61
2022/04/13 04:12:42;;;;;;;12.30;7.68;;;;;;;12.28;71.15;101062.91;3532750;40;20147;-61
2022/04/13 04:15:10;;;;;;;15.38;8.43;;;;;;;12.34;71.80;101072.44;3545574;40;20088;-61
2022/04/13 04:17:36;;;;;;;14.82;8.40;;;;;;;12.36;71.37;101075.03;3545066;40;20093;-61
2022/04/13 04:20:04;;;;;;;12.25;8.40;;;;;;;12.37;71.89;101076.75;3550487;40;20072;-61
2022/04/13 04:22:29;;;;;;;14.32;8.48;;;;;;;12.37;71.72;101084.84;3540405;40;20296;-61
2022/04/13 04:24:55;;;;;;;16.90;9.70;;;;;;;12.37;71.40;101082.13;3544132;40;20050;-61
2022/04/13 04:27:21;;;;;;;13.05;8.85;;;;;;;12.39;71.77;101091.00;3552574;40;20423;-62
2022/04/13 04:29:46;;;;;;;14.10;8.60;;;;;;;12.38;71.31;101089.28;3528018;40;20369;-61
2022/04/13 04:32:12;;;;;;;15.23;9.30;;;;;;;12.40;71.90;101092.72;3541199;40;20057;-62
2022/04/13 04:34:38;;;;;;;16.13;8.82;;;;;;;12.41;72.05;101087.25;3542547;40;20057;-61
2022/04/13 04:37:04;;;;;;;14.23;9.02;;;;;;;12.41;71.73;101089.09;3538527;40;20057;-62
2022/04/13 04:39:30;;;;;;;17.52;9.23;;;;;;;12.31;71.60;101076.19;3542565;40;20061;-61
2022/04/13 04:41:55;;;;;;;17.35;9.60;;;;;;;12.48;72.21;101106.59;3539777;40;20054;-61
2022/04/13 04:44:21;;;;;;;15.95;9.55;;;;;;;12.53;71.46;101109.84;3536066;40;20054;-61
2022/04/13 04:46:46;;;;;;;14.73;9.73;;;;;;;12.53;71.64;101113.41;3526331;40;20050;-62
2022/04/13 04:49:12;;;;;;;16.95;9.60;;;;;;;12.55;71.94;101114.16;3539059;40;20066;-61
2022/04/13 04:51:38;;;;;;;19.65;10.73;;;;;;;12.58;72.43;101121.19;3538512;40;20073;-61
2022/04/13 04:54:04;;;;;;;17.40;10.23;;;;;;;12.62;72.40;101120.00;3529424;40;20057;-62
2022/04/13 04:56:30;;;;;;;14.23;9.77;;;;;;;12.65;72.17;101130.59;3538995;40;20074;-61
2022/04/13 04:58:56;;;;;;;16.67;10.13;;;;;;;12.69;72.23;101129.44;3539067;40;20147;-62
2022/04/13 05:01:22;;;;;;;20.27;10.57;;;;;;;12.70;72.23;101128.47;3534126;40;20058;-62
2022/04/13 05:03:51;;;;;;;21.20;10.68;;;;;;;12.74;71.95;101131.84;3535816;40;20658;-62
2022/04/13 05:06:22;;;;;;;18.75;11.30;;;;;;;12.63;72.05;101100.19;3544793;40;20315;-62
2022/04/13 05:08:49;;;;;;;21.73;12.20;;;;;;;12.81;71.73;101132.28;3528157;40;20826;-62
2022/04/13 05:11:16;;;;;;;21.95;12.32;;;;;;;12.71;71.76;101114.00;3540983;40;20049;-62
2022/04/13 05:13:45;;;;;;;18.20;11.93;;;;;;;12.90;71.89;101143.34;3539436;40;20629;-61
2022/04/13 05:16:15;;;;;;;21.40;12.45;;;;;;;12.91;71.63;101139.69;3532161;40;20050;-62
2022/04/13 05:18:43;;;;;;;19.88;12.50;;;;;;;12.97;72.46;101146.50;3532582;40;20073;-62
2022/04/13 05:21:09;;;;;;;19.80;13.25;;;;;;;13.01;72.04;101143.50;3540955;40;20105;-62
2022/04/13 05:23:36;;;;;;;18.02;13.10;;;;;;;13.07;71.82;101158.44;3528587;40;20069;-63
2022/04/13 05:26:02;;;;;;;20.27;13.27;;;;;;;13.12;71.96;101153.56;3539941;40;20070;-63
2022/04/13 05:28:29;;;;;;;18.05;13.35;;;;;;;13.17;71.61;101164.06;3540073;40;20085;-62
2022/04/13 05:30:55;;;;;;;22.80;14.73;;;;;;;13.22;71.52;101162.78;3543288;40;20049;-63
2022/04/13 05:33:21;;;;;;;20.02;13.70;;;;;;;13.30;71.70;101170.41;3530197;40;20057;-63
2022/04/13 05:35:47;;;;;;;21.17;13.25;;;;;;;13.36;71.77;101167.28;3533161;40;20062;-62
2022/04/13 05:38:13;;;;;;;24.70;14.25;;;;;;;13.47;71.05;101177.34;3541064;40;20061;-63
2022/04/13 05:40:39;;;;;;;17.73;14.10;;;;;;;13.49;70.99;101175.41;3527876;40;20102;-62
2022/04/13 05:43:04;;;;;;;20.08;13.95;;;;;;;13.53;71.37;101171.53;3538365;40;20050;-63
2022/04/13 05:45:30;;;;;;;22.08;15.63;;;;;;;13.66;70.61;101185.91;3539840;40;20061;-60
2022/04/13 05:47:57;;;;;;;21.20;15.13;;;;;;;13.74;70.54;101182.69;3534624;40;21805;-61
2022/04/13 05:50:23;;;;;;;22.05;14.80;;;;;;;13.84;69.81;101185.63;3533416;40;20084;-61
2022/04/13 05:52:49;;;;;;;26.60;16.88;;;;;;;13.90;69.96;101182.47;3538944;40;20069;-62
2022/04/13 05:55:15;;;;;;;24.60;15.60;;;;;;;13.97;69.60;101181.06;3531404;40;20135;-62
2022/04/13 05:57:41;;;;;;;22.17;15.95;;;;;;;14.10;69.18;101187.34;3536711;40;20085;-60
2022/04/13 06:00:10;;;;;;;23.33;16.05;;;;;;;14.21;68.92;101185.69;3539850;40;20050;-62
2022/04/13 06:02:37;;;;;;;20.85;16.08;;;;;;;14.31;68.54;101194.91;3537036;40;20071;-61
2022/04/13 06:05:05;;;;;;;25.30;17.05;;;;;;;14.41;68.57;101201.38;3536140;40;20061;-62
2022/04/13 06:07:30;;;;;;;25.50;16.58;;;;;;;14.51;68.51;101204.31;3532959;40;20058;-64
2022/04/13 06:10:01;;;;;;;23.27;17.15;;;;;;;14.59;68.21;101205.50;3528152;40;20686;-62
2022/04/13 06:12:28;;;;;;;24.52;16.20;;;;;;;14.59;66.99;101188.41;3539226;40;20375;-61
2022/04/13 06:15:11;;;;;;;23.20;15.52;;;;;;;14.75;66.86;101217.91;3544642;40;20064;-62
2022/04/13 06:17:38;;;;;;;26.90;16.33;;;;;;;14.76;67.10;101206.09;3541306;40;20176;-61
2022/04/13 06:20:06;;;;;;;19.92;15.07;;;;;;;14.91;66.63;101221.22;3536498;40;20323;-62
2022/04/13 06:22:39;;;;;;;23.02;16.17;;;;;;;14.98;66.61;101218.91;3533437;40;20049;-61
2022/04/13 06:25:06;;;;;;;21.55;15.70;;;;;;;15.03;66.32;101225.72;3532112;40;20061;-62
2022/04/13 06:27:32;;;;;;;21.60;14.88;;;;;;;15.06;65.67;101225.50;3540348;40;20065;-62
2022/04/13 06:29:57;;;;;;;22.45;14.77;;;;;;;15.11;65.89;101221.59;3543499;40;20149;-62
2022/04/13 06:32:35;;;;;;;22.55;14.98;;;;;;;15.08;65.57;101207.28;3540965;40;20056;-61
2022/04/13 06:35:04;;;;;;;22.27;14.85;;;;;;;15.20;65.74;101215.47;3530201;40;20825;-62
2022/04/13 06:37:30;;;;;;;23.27;15.20;;;;;;;15.25;66.05;101218.69;3533106;40;20065;-62
2022/04/13 06:39:56;;;;;;;26.33;15.43;;;;;;;15.27;66.14;101224.88;3535753;40;20800;-62
2022/04/13 06:42:22;;;;;;;21.75;15.07;;;;;;;15.25;66.12;101232.22;3531167;40;20069;-61
2022/04/13 06:44:54;;;;;;;24.45;15.13;;;;;;;15.26;65.55;101231.28;3539552;40;20064;-62
2022/04/13 06:47:20;;;;;;;27.40;14.60;;;;;;;15.26;65.68;101245.69;3542503;40;20054;-61
2022/04/13 06:49:47;;;;;;;22.23;15.70;;;;;;;15.31;65.87;101243.47;3537104;40;20641;-62
2022/04/13 06:52:14;;;;;;;23.60;15.45;;;;;;;15.26;65.90;101232.13;3535173;40;20069;-63
2022/04/13 06:54:41;;;;;;;23.75;16.05;;;;;;;15.34;65.21;101245.09;3526338;40;20120;-65
2022/04/13 06:57:06;;;;;;;23.33;15.82;;;;;;;15.47;65.32;101262.13;3532736;40;20382;-62
2022/04/13 06:59:32;;;;;;;19.25;15.93;;;;;;;15.53;65.16;101263.53;3530270;40;20086;-62
2022/04/13 07:01:57;;;;;;;22.65;16.15;;;;;;;15.61;65.37;101269.25;3540571;40;20069;-62
2022/04/13 07:04:23;;;;;;;22.75;16.50;;;;;;;15.68;64.51;101277.81;3542985;40;20057;-62
2022/04/13 07:06:50;;;;;;;21.45;16.17;;;;;;;15.72;64.87;101272.00;3532066;40;20140;-63
2022/04/13 07:09:15;;;;;;;20.27;15.55;;;;;;;15.76;64.92;101278.06;3534737;40;20386;-62
2022/04/13 07:11:41;;;;;;;24.38;15.80;;;;;;;15.80;64.27;101285.00;3530262;40;20057;-62
2022/04/13 07:14:07;;;;;;;27.40;16.20;;;;;;;15.82;65.06;101285.72;3526918;40;20412;-62
2022/04/13 07:16:32;;;;;;;22.08;15.93;;;;;;;15.80;64.71;101285.00;3541328;40;20053;-62
2022/04/13 07:18:58;;;;;;;23.55;15.52;;;;;;;15.76;64.44;101287.09;3542902;40;20073;-63
2022/04/13 07:21:24;;;;;;;23.13;15.05;;;;;;;15.78;64.45;101292.38;3545911;40;20057;-62
2022/04/13 07:23:49;;;;;;;24.30;15.15;;;;;;;15.85;64.90;101306.31;3529993;40;20066;-63
2022/04/13 07:26:15;;;;;;;21.80;15.98;;;;;;;15.88;65.00;101309.66;3539372;40;20073;-63
2022/04/13 07:28:41;;;;;;;23.48;15.60;;;;;;;15.93;64.41;101302.06;3528798;40;20064;-63
2022/04/13 07:31:06;;;;;;;23.83;15.27;;;;;;;16.06;64.12;101307.41;3536978;40;20046;-63
2022/04/13 07:33:32;;;;;;;20.77;15.68;;;;;;;16.14;64.43;101314.91;3539405;40;20046;-62
2022/04/13 07:35:58;;;;;;;26.00;16.17;;;;;;;16.27;64.67;101315.72;3541125;40;20053;-63
2022/04/13 07:38:25;;;;;;;22.00;14.55;;;;;;;16.16;63.66;101286.69;3533306;40;20372;-62
2022/04/13 07:40:50;;;;;;;20.52;15.02;;;;;;;16.32;63.88;101313.50;3540152;40;20470;-63
2022/04/13 07:43:16;;;;;;;25.60;15.25;;;;;;;16.38;63.64;101310.31;3534487;40;20065;-63
2022/04/13 07:45:43;;;;;;;22.50;14.98;;;;;;;16.45;63.91;101311.53;3532730;40;20400;-63
2022/04/13 07:48:09;;;;;;;21.67;14.77;;;;;;;16.51;63.74;101312.06;3545336;40;20068;-63
2022/04/13 07:50:35;;;;;;;19.50;13.88;;;;;;;16.53;63.84;101312.81;3539958;40;21708;-61
2022/04/13 07:53:01;;;;;;;19.30;14.18;;;;;;;16.59;63.42;101313.19;3545802;40;20093;-61
2022/04/13 07:55:27;;;;;;;21.75;15.02;;;;;;;16.71;63.03;101319.47;3530015;40;20074;-61
2022/04/13 07:57:53;;;;;;;21.52;14.80;;;;;;;16.79;63.25;101311.63;3542154;40;20339;-62
2022/04/13 08:00:18;;;;;;;19.85;14.02;;;;;;;17.06;62.57;101329.38;3533992;40;20057;-62
2022/04/13 08:02:44;;;;;;;27.20;15.20;;;;;;;17.28;61.75;101296.72;3533493;40;20089;-62
2022/04/13 08:05:12;;;;;;;20.50;14.57;;;;;;;17.85;59.87;101335.53;3545112;40;20412;-63
2022/04/13 08:07:40;;;;;;;20.52;14.35;;;;;;;17.98;59.52;101332.63;3538407;40;20112;-61
2022/04/13 08:10:06;;;;;;;21.85;14.27;;;;;;;18.10;58.59;101339.75;3536455;40;20117;-62
2022/04/13 08:12:32;;;;;;;18.65;13.63;;;;;;;18.33;58.27;101344.09;3535760;40;20054;-63
2022/04/13 08:14:59;;;;;;;17.48;13.57;;;;;;;18.54;57.72;101335.06;3531293;40;20717;-62
2022/04/13 08:17:26;;;;;;;19.88;13.25;;;;;;;18.65;57.40;101336.81;3543524;40;20098;-61
2022/04/13 08:19:53;;;;;;;17.95;12.07;;;;;;;18.99;55.78;101345.63;3543239;40;20139;-61
2022/04/13 08:22:27;;;;;;;20.20;13.32;;;;;;;19.11;55.65;101344.53;3543405;40;20133;-62
2022/04/13 08:24:53;;;;;;;17.38;10.52;;;;;;;19.24;55.44;101347.03;3532941;40;20072;-61
2022/04/13 08:27:19;;;;;;;19.52;10.63;;;;;;;19.14;55.10;101346.13;3536817;40;20046;-61
2022/04/13 08:29:48;;;;;;;15.75;10.18;;;;;;;18.97;54.89;101356.69;3533521;40;20054;-61
2022/04/13 08:32:19;;;;;;;18.23;10.48;;;;;;;18.92;55.22;101358.09;3543009;40;20050;-61
2022/04/13 08:34:49;;;;;;;14.50;10.23;;;;;;;18.90;55.50;101357.34;3538874;40;20109;-61
2022/04/13 08:37:14;;;;;;;14.52;9.38;;;;;;;18.86;56.26;101356.75;3542947;40;20057;-61
2022/04/13 08:39:40;;;;;;;19.38;9.30;;;;;;;18.85;55.69;101356.91;3539708;40;20073;-62
2022/04/13 08:42:13;;;;;;;13.13;8.55;;;;;;;18.79;55.88;101356.44;3537856;40;20120;-62
2022/04/13 08:44:48;;;;;;;16.42;8.88;;;;;;;18.81;56.43;101361.75;3536177;40;20066;-61
2022/04/13 08:47:21;;;;;;;15.63;9.32;;;;;;;18.87;55.75;101369.41;3533226;40;20053;-62
2022/04/13 08:49:49;;;;;;;18.70;10.13;;;;;;;18.87;55.34;101373.97;3540522;40;20144;-62
2022/04/13 08:52:31;;;;;;;17.65;8.82;;;;;;;18.87;55.46;101365.78;3542118;40;20068;-62
2022/04/13 08:55:09;;;;;;;13.80;8.52;;;;;;;18.85;55.13;101371.38;3540376;40;20113;-62
2022/04/13 08:57:48;;;;;;;12.73;8.80;;;;;;;18.92;55.40;101366.25;3550027;23;20049;-63
2022/04/13 09:00:22;;;;;;;17.20;9.80;;;;;;;18.98;55.63;101373.88;3529363;40;20062;-64
2022/04/13 09:02:50;;;;;;;17.25;10.45;;;;;;;18.95;56.09;101376.88;3526075;40;20269;-64
2022/04/13 09:05:32;;;;;;;16.95;11.20;;;;;;;18.95;56.23;101388.63;3538043;40;20071;-63
2022/04/13 09:08:34;;;;;;;18.17;11.60;;;;;;;18.91;56.16;101383.59;3536266;40;20140;-64
2022/04/13 09:11:01;;;;;;;18.33;11.80;;;;;;;18.84;55.00;101356.06;3526146;40;20069;-64
2022/04/13 09:13:32;;;;;;;25.67;11.70;;;;;;;19.04;54.60;101376.06;3516024;40;20110;-63
2022/04/13 09:15:59;;;;;;;16.65;11.77;;;;;;;19.07;55.54;101386.69;3522887;40;20114;-64
2022/04/13 09:18:25;;;;;;;17.88;10.88;;;;;;;19.08;55.66;101396.59;3517468;40;20055;-64
2022/04/13 09:20:51;;;;;;;17.70;11.02;;;;;;;18.88;55.83;101362.94;3526163;40;20054;-64
2022/04/13 09:23:18;;;;;;;16.35;10.95;;;;;;;18.93;56.11;101387.03;3525775;40;20322;-64
2022/04/13 09:25:46;;;;;;;17.15;11.43;;;;;;;18.96;55.87;101405.84;3525068;40;20070;-64
2022/04/13 09:28:12;;;;;;;15.77;11.38;;;;;;;18.94;56.62;101397.81;3516300;40;20071;-66
2022/04/13 09:30:38;;;;;;;16.00;11.80;;;;;;;18.67;56.10;101360.19;3517998;40;20070;-62
2022/04/13 09:33:04;;;;;;;18.77;12.32;;;;;;;18.89;56.41;101404.66;3517497;40;20099;-64
2022/04/13 09:35:35;;;;;;;14.82;12.05;;;;;;;18.83;56.34;101422.41;3522691;40;20043;-63
2022/04/13 09:38:07;;;;;;;21.38;12.73;;;;;;;18.74;57.72;101418.66;3522975;40;20074;-64
2022/04/13 09:40:38;;;;;;;17.77;12.23;;;;;;;18.62;57.23;101416.94;3522081;40;20457;-63
2022/04/13 09:43:15;;;;;;;17.95;11.85;;;;;;;18.50;57.89;101418.00;3517462;40;20046;-64
2022/04/13 09:45:44;;;;;;;16.85;12.32;;;;;;;18.41;58.11;101418.78;3515731;40;20114;-64
2022/04/13 09:48:20;;;;;;;17.30;13.00;;;;;;;18.38;58.12;101432.66;3518456;40;20047;-64
2022/04/13 09:50:50;;;;;;;16.60;13.10;;;;;;;18.35;58.50;101427.47;3523779;40;20065;-64
2022/04/13 09:53:19;;;;;;;23.70;13.85;;;;;;;18.29;58.83;101424.25;3523827;40;20145;-64
2022/04/13 09:55:51;;;;;;;22.80;14.55;;;;;;;18.28;58.93;101427.13;3521774;40;20136;-64
2022/04/13 09:58:23;;;;;;;21.58;14.55;;;;;;;18.16;59.30;101417.28;3521000;40;20120;-64
2022/04/13 10:00:52;;;;;;;20.23;14.95;;;;;;;18.10;59.18;101413.22;3519271;40;20163;-64
2022/04/13 10:03:23;;;;;;;23.70;14.90;;;;;;;18.10;59.37;101426.81;3526846;40;20050;-64
2022/04/13 10:05:56;;;;;;;19.45;14.55;;;;;;;18.09;59.98;101427.81;3526005;40;20058;-64
2022/04/13 10:08:28;;;;;;;20.17;14.77;;;;;;;17.90;60.34;101401.28;3537886;40;20058;-63
2022/04/13 10:10:57;;;;;;;20.63;14.57;;;;;;;18.09;59.19;101430.53;3535090;40;20608;-64
2022/04/13 10:13:43;;;;;;;22.60;15.30;;;;;;;17.97;59.21;101409.81;3535166;40;20054;-63
2022/04/13 10:16:11;;;;;;;18.40;14.90;;;;;;;17.99;59.57;101426.88;3538366;40;20050;-64
2022/04/13 10:18:58;;;;;;;20.23;14.38;;;;;;;17.97;60.66;101426.13;3523168;40;20313;-62
2022/04/13 10:21:43;;;;;;;20.08;14.77;;;;;;;17.86;61.18;101419.72;3539211;40;20122;-63
2022/04/13 10:24:30;;;;;;;21.45;15.20;;;;;;;17.86;61.79;101433.31;3540907;40;20050;-64
2022/04/13 10:27:17;;;;;;;20.73;14.95;;;;;;;17.80;60.89;101439.28;3536648;40;20045;-63
2022/04/13 10:29:47;;;;;;;17.10;14.32;;;;;;;17.77;61.57;101439.53;3519429;40;20090;-64
2022/04/13 10:32:16;;;;;;;17.42;14.18;;;;;;;17.72;61.61;101439.00;3527160;40;20641;-63
2022/04/13 10:34:49;;;;;;;21.73;15.90;;;;;;;17.66;61.38;101438.63;3527670;40;20058;-64
2022/04/13 10:37:19;;;;;;;19.77;15.15;;;;;;;17.51;61.81;101424.47;3535258;40;21762;-64
2022/04/13 10:39:46;;;;;;;16.95;14.88;;;;;;;17.58;61.86;101444.72;3535183;40;20121;-66
2022/04/13 10:42:16;;;;;;;20.55;14.93;;;;;;;17.58;61.71;101455.59;3523200;40;20106;-63
2022/04/13 10:45:06;;;;;;;22.50;15.27;;;;;;;17.53;63.38;101446.94;3526775;40;20057;-64
2022/04/13 10:47:43;;;;;;;18.33;16.02;;;;;;;17.27;63.07;101409.16;3533777;40;20065;-64
2022/04/13 10:50:13;;;;;;;23.67;17.08;;;;;;;17.42;62.90;101444.25;3523410;40;20065;-62
2022/04/13 10:53:15;;;;;;;19.80;16.92;;;;;;;17.49;64.11;101451.75;3532479;40;20090;-63
2022/04/13 10:55:45;;;;;;;21.70;17.67;;;;;;;17.48;63.51;101463.63;3533367;40;20080;-63
2022/04/13 10:58:51;;;;;;;24.67;18.75;;;;;;;17.38;63.74;101471.66;3533141;40;20054;-63
2022/04/13 11:01:21;;;;;;;22.92;19.27;;;;;;;17.28;64.20;101467.94;3525775;40;20698;-63
2022/04/13 11:03:47;;;;;;;22.58;19.23;;;;;;;17.27;64.17;101473.50;3534154;40;20168;-64
2022/04/13 11:06:13;;;;;;;22.70;18.85;;;;;;;17.22;65.29;101475.72;3519813;40;20057;-64
2022/04/13 11:09:08;;;;;;;28.70;20.25;;;;;;;17.15;64.84;101469.91;3535328;40;20332;-67
2022/04/13 11:11:35;;;;;;;25.40;20.30;;;;;;;17.20;64.42;101481.28;3532037;40;20680;-62
2022/04/13 11:14:15;;;;;;;28.10;20.65;;;;;;;17.20;64.87;101484.00;3535173;40;20147;-63
2022/04/13 11:16:40;;;;;;;26.25;21.27;;;;;;;16.77;65.02;101405.88;3526487;40;20389;-63
2022/04/13 11:19:06;;;;;;;24.20;21.52;;;;;;;17.19;64.29;101476.84;3533202;40;20054;-64